sensor_id;sensor_type;location;lat;lon;timestamp;temperature;humidity
31725;DHT22;18306;40.960;14.836;2022-09-09T00:02:21;22.70;99.90
31725;DHT22;18306;40.960;14.836;2022-09-09T00:07:47;22.70;99.90
31725;DHT22;18306;40.960;14.836;2022-09-09T00:10:37;22.70;99.90
31725;DHT22;18306;40.960;14.836;2022-09-09T00:13:37;22.70;99.90
31725;DHT22;18306;40.960;14.836;2022-09-09T00:16:20;22.70;99.90
31725;DHT22;18306;40.960;14.836;2022-09-09T00:21:47;22.60;99.90
31725;DHT22;18306;40.960;14.836;2022-09-09T00:24:32;22.60;99.90
31725;DHT22;18306;40.960;14.836;2022-09-09T00:27:13;22.70;99.90
31725;DHT22;18306;40.960;14.836;2022-09-09T00:29:53;22.60;99.90
31725;DHT22;18306;40.960;14.836;2022-09-09T00:32:22;22.60;99.90
31725;DHT22;18306;40.960;14.836;2022-09-09T00:34:54;22.60;99.90
31725;DHT22;18306;40.960;14.836;2022-09-09T00:37:24;22.50;99.90
31725;DHT22;18306;40.960;14.836;2022-09-09T00:43:51;22.50;99.90
31725;DHT22;18306;40.960;14.836;2022-09-09T00:55:07;22.40;99.90
31725;DHT22;18306;40.960;14.836;2022-09-09T00:57:38;22.40;99.90
31725;DHT22;18306;40.960;14.836;2022-09-09T01:00:31;22.40;99.90
31725;DHT22;18306;40.960;14.836;2022-09-09T01:06:14;22.40;99.90
31725;DHT22;18306;40.960;14.836;2022-09-09T01:09:02;22.50;99.90
31725;DHT22;18306;40.960;14.836;2022-09-09T01:14:29;22.50;99.90
31725;DHT22;18306;40.960;14.836;2022-09-09T01:17:05;22.50;99.90
31725;DHT22;18306;40.960;14.836;2022-09-09T01:26:20;22.30;99.90
31725;DHT22;18306;40.960;14.836;2022-09-09T01:28:44;22.40;99.90
31725;DHT22;18306;40.960;14.836;2022-09-09T01:31:38;22.40;99.90
31725;DHT22;18306;40.960;14.836;2022-09-09T01:34:13;22.50;99.90
31725;DHT22;18306;40.960;14.836;2022-09-09T01:36:57;22.40;99.90
31725;DHT22;18306;40.960;14.836;2022-09-09T01:39:28;22.40;99.90
31725;DHT22;18306;40.960;14.836;2022-09-09T01:42:07;22.40;99.90
31725;DHT22;18306;40.960;14.836;2022-09-09T01:44:36;22.40;99.90
31725;DHT22;18306;40.960;14.836;2022-09-09T01:47:11;22.40;99.90
31725;DHT22;18306;40.960;14.836;2022-09-09T01:49:56;22.40;99.90
31725;DHT22;18306;40.960;14.836;2022-09-09T01:52:27;22.40;99.90
31725;DHT22;18306;40.960;14.836;2022-09-09T01:54:54;22.50;99.90
31725;DHT22;18306;40.960;14.836;2022-09-09T01:57:28;22.40;99.90
31725;DHT22;18306;40.960;14.836;2022-09-09T02:05:49;22.40;99.90
31725;DHT22;18306;40.960;14.836;2022-09-09T02:08:52;22.30;99.90
31725;DHT22;18306;40.960;14.836;2022-09-09T02:11:23;22.30;99.90
31725;DHT22;18306;40.960;14.836;2022-09-09T02:14:23;22.20;99.90
31725;DHT22;18306;40.960;14.836;2022-09-09T02:16:59;22.20;99.90
31725;DHT22;18306;40.960;14.836;2022-09-09T02:19:49;22.20;99.90
31725;DHT22;18306;40.960;14.836;2022-09-09T02:22:26;22.30;99.90
31725;DHT22;18306;40.960;14.836;2022-09-09T02:24:58;22.20;99.90
31725;DHT22;18306;40.960;14.836;2022-09-09T02:27:32;22.30;99.90
31725;DHT22;18306;40.960;14.836;2022-09-09T02:30:00;22.20;99.90
31725;DHT22;18306;40.960;14.836;2022-09-09T02:32:45;22.20;99.90
31725;DHT22;18306;40.960;14.836;2022-09-09T02:35:19;22.20;99.90
31725;DHT22;18306;40.960;14.836;2022-09-09T02:37:47;22.20;99.90
31725;DHT22;18306;40.960;14.836;2022-09-09T02:40:17;22.10;99.90
31725;DHT22;18306;40.960;14.836;2022-09-09T02:42:55;22.00;99.90
31725;DHT22;18306;40.960;14.836;2022-09-09T02:45:30;22.00;99.90
31725;DHT22;18306;40.960;14.836;2022-09-09T02:51:12;22.00;99.90
31725;DHT22;18306;40.960;14.836;2022-09-09T02:54:01;22.00;99.90
31725;DHT22;18306;40.960;14.836;2022-09-09T02:56:40;22.10;99.90
31725;DHT22;18306;40.960;14.836;2022-09-09T02:59:10;22.10;99.90
31725;DHT22;18306;40.960;14.836;2022-09-09T03:01:39;22.00;99.90
31725;DHT22;18306;40.960;14.836;2022-09-09T03:04:07;22.00;99.90
31725;DHT22;18306;40.960;14.836;2022-09-09T03:06:34;21.90;99.90
31725;DHT22;18306;40.960;14.836;2022-09-09T03:09:12;21.90;99.90
31725;DHT22;18306;40.960;14.836;2022-09-09T03:11:39;21.90;99.90
31725;DHT22;18306;40.960;14.836;2022-09-09T03:14:07;21.80;99.90
31725;DHT22;18306;40.960;14.836;2022-09-09T03:16:37;21.90;99.90
31725;DHT22;18306;40.960;14.836;2022-09-09T03:19:04;22.00;99.90
31725;DHT22;18306;40.960;14.836;2022-09-09T03:21:31;22.00;99.90
31725;DHT22;18306;40.960;14.836;2022-09-09T03:24:00;22.10;99.90
31725;DHT22;18306;40.960;14.836;2022-09-09T03:26:38;22.00;99.90
31725;DHT22;18306;40.960;14.836;2022-09-09T03:29:09;22.10;99.90
31725;DHT22;18306;40.960;14.836;2022-09-09T03:31:38;22.10;99.90
31725;DHT22;18306;40.960;14.836;2022-09-09T03:34:05;22.20;99.90
31725;DHT22;18306;40.960;14.836;2022-09-09T03:36:34;22.30;99.90
31725;DHT22;18306;40.960;14.836;2022-09-09T03:39:02;22.30;99.90
31725;DHT22;18306;40.960;14.836;2022-09-09T03:41:31;22.40;99.90
31725;DHT22;18306;40.960;14.836;2022-09-09T03:44:01;22.40;99.90
31725;DHT22;18306;40.960;14.836;2022-09-09T03:46:32;22.40;99.90
31725;DHT22;18306;40.960;14.836;2022-09-09T03:49:00;22.40;99.90
31725;DHT22;18306;40.960;14.836;2022-09-09T03:51:33;22.50;99.90
31725;DHT22;18306;40.960;14.836;2022-09-09T03:54:07;22.50;99.90
31725;DHT22;18306;40.960;14.836;2022-09-09T03:56:37;22.60;99.90
31725;DHT22;18306;40.960;14.836;2022-09-09T03:59:05;22.70;99.90
31725;DHT22;18306;40.960;14.836;2022-09-09T04:01:32;22.80;99.90
31725;DHT22;18306;40.960;14.836;2022-09-09T04:04:00;22.80;99.90
31725;DHT22;18306;40.960;14.836;2022-09-09T04:06:29;22.80;99.90
31725;DHT22;18306;40.960;14.836;2022-09-09T04:08:57;22.90;99.90
31725;DHT22;18306;40.960;14.836;2022-09-09T04:11:26;23.00;99.90
31725;DHT22;18306;40.960;14.836;2022-09-09T04:13:58;23.10;99.90
31725;DHT22;18306;40.960;14.836;2022-09-09T04:16:30;23.10;99.90
31725;DHT22;18306;40.960;14.836;2022-09-09T04:18:58;23.10;99.90
31725;DHT22;18306;40.960;14.836;2022-09-09T04:21:26;23.10;99.90
31725;DHT22;18306;40.960;14.836;2022-09-09T04:23:54;23.00;99.90
31725;DHT22;18306;40.960;14.836;2022-09-09T04:26:22;23.00;99.90
31725;DHT22;18306;40.960;14.836;2022-09-09T04:28:49;22.90;99.90
31725;DHT22;18306;40.960;14.836;2022-09-09T04:31:21;22.90;99.90
31725;DHT22;18306;40.960;14.836;2022-09-09T04:33:52;22.80;99.90
31725;DHT22;18306;40.960;14.836;2022-09-09T04:36:20;22.70;99.90
31725;DHT22;18306;40.960;14.836;2022-09-09T04:38:49;22.80;99.90
31725;DHT22;18306;40.960;14.836;2022-09-09T04:41:17;22.80;99.90
31725;DHT22;18306;40.960;14.836;2022-09-09T04:43:46;22.90;99.90
31725;DHT22;18306;40.960;14.836;2022-09-09T04:46:16;22.80;99.90
31725;DHT22;18306;40.960;14.836;2022-09-09T04:48:49;22.80;99.90
31725;DHT22;18306;40.960;14.836;2022-09-09T04:51:17;22.80;99.90
31725;DHT22;18306;40.960;14.836;2022-09-09T04:53:46;22.70;99.90
31725;DHT22;18306;40.960;14.836;2022-09-09T04:56:17;22.60;99.90
31725;DHT22;18306;40.960;14.836;2022-09-09T04:58:51;22.70;99.90
31725;DHT22;18306;40.960;14.836;2022-09-09T05:01:22;22.80;99.90
31725;DHT22;18306;40.960;14.836;2022-09-09T05:03:53;22.90;99.90
31725;DHT22;18306;40.960;14.836;2022-09-09T05:06:22;22.90;99.90
31725;DHT22;18306;40.960;14.836;2022-09-09T05:08:54;23.00;99.90
31725;DHT22;18306;40.960;14.836;2022-09-09T05:11:26;23.10;99.90
31725;DHT22;18306;40.960;14.836;2022-09-09T05:13:59;23.10;99.90
31725;DHT22;18306;40.960;14.836;2022-09-09T05:16:26;23.20;99.90
31725;DHT22;18306;40.960;14.836;2022-09-09T05:18:53;23.30;99.90
31725;DHT22;18306;40.960;14.836;2022-09-09T05:21:22;23.40;99.90
31725;DHT22;18306;40.960;14.836;2022-09-09T05:23:50;23.40;99.90
31725;DHT22;18306;40.960;14.836;2022-09-09T05:26:20;23.50;99.90
31725;DHT22;18306;40.960;14.836;2022-09-09T05:28:50;23.50;99.90
31725;DHT22;18306;40.960;14.836;2022-09-09T05:31:19;23.50;99.90
31725;DHT22;18306;40.960;14.836;2022-09-09T05:33:49;23.60;99.90
31725;DHT22;18306;40.960;14.836;2022-09-09T05:36:19;23.60;99.90
31725;DHT22;18306;40.960;14.836;2022-09-09T05:38:49;23.60;99.90
31725;DHT22;18306;40.960;14.836;2022-09-09T05:41:17;23.60;99.90
31725;DHT22;18306;40.960;14.836;2022-09-09T05:43:46;23.60;99.90
31725;DHT22;18306;40.960;14.836;2022-09-09T05:46:18;23.60;99.90
31725;DHT22;18306;40.960;14.836;2022-09-09T05:48:48;23.60;99.90
31725;DHT22;18306;40.960;14.836;2022-09-09T05:51:25;23.50;99.90
31725;DHT22;18306;40.960;14.836;2022-09-09T05:53:56;23.50;99.90
31725;DHT22;18306;40.960;14.836;2022-09-09T05:56:29;23.50;99.90
31725;DHT22;18306;40.960;14.836;2022-09-09T05:58:58;23.40;99.90
31725;DHT22;18306;40.960;14.836;2022-09-09T06:01:35;23.40;99.90
31725;DHT22;18306;40.960;14.836;2022-09-09T06:04:09;23.30;99.90
31725;DHT22;18306;40.960;14.836;2022-09-09T06:06:38;23.30;99.90
31725;DHT22;18306;40.960;14.836;2022-09-09T06:09:12;23.30;99.90
31725;DHT22;18306;40.960;14.836;2022-09-09T06:11:43;23.30;99.90
31725;DHT22;18306;40.960;14.836;2022-09-09T06:14:12;23.30;99.90
31725;DHT22;18306;40.960;14.836;2022-09-09T06:16:40;23.40;99.90
31725;DHT22;18306;40.960;14.836;2022-09-09T06:19:23;23.30;99.90
31725;DHT22;18306;40.960;14.836;2022-09-09T06:21:51;23.40;99.90
31725;DHT22;18306;40.960;14.836;2022-09-09T06:24:27;23.40;99.90
31725;DHT22;18306;40.960;14.836;2022-09-09T06:27:06;23.40;99.90
31725;DHT22;18306;40.960;14.836;2022-09-09T06:29:37;23.30;99.90
31725;DHT22;18306;40.960;14.836;2022-09-09T06:32:04;23.30;99.90
31725;DHT22;18306;40.960;14.836;2022-09-09T06:34:32;23.20;99.90
31725;DHT22;18306;40.960;14.836;2022-09-09T06:37:00;23.20;99.90
31725;DHT22;18306;40.960;14.836;2022-09-09T06:39:35;23.20;99.90
31725;DHT22;18306;40.960;14.836;2022-09-09T06:42:02;23.20;99.90
31725;DHT22;18306;40.960;14.836;2022-09-09T06:44:51;23.20;99.90
31725;DHT22;18306;40.960;14.836;2022-09-09T06:47:29;23.00;99.90
31725;DHT22;18306;40.960;14.836;2022-09-09T06:49:58;22.20;99.90
31725;DHT22;18306;40.960;14.836;2022-09-09T06:52:25;22.00;99.90
31725;DHT22;18306;40.960;14.836;2022-09-09T06:54:54;21.90;99.90
31725;DHT22;18306;40.960;14.836;2022-09-09T06:57:21;21.90;99.90
31725;DHT22;18306;40.960;14.836;2022-09-09T06:59:49;21.90;99.90
31725;DHT22;18306;40.960;14.836;2022-09-09T07:02:16;21.80;99.90
31725;DHT22;18306;40.960;14.836;2022-09-09T07:04:44;21.80;99.90
31725;DHT22;18306;40.960;14.836;2022-09-09T07:07:11;21.70;99.90
31725;DHT22;18306;40.960;14.836;2022-09-09T07:09:40;21.70;99.90
31725;DHT22;18306;40.960;14.836;2022-09-09T07:12:09;21.70;99.90
31725;DHT22;18306;40.960;14.836;2022-09-09T07:14:41;21.70;99.90
31725;DHT22;18306;40.960;14.836;2022-09-09T07:17:09;21.80;99.90
31725;DHT22;18306;40.960;14.836;2022-09-09T07:19:40;21.80;99.90
31725;DHT22;18306;40.960;14.836;2022-09-09T07:22:09;21.80;99.90
31725;DHT22;18306;40.960;14.836;2022-09-09T07:24:38;21.80;99.90
31725;DHT22;18306;40.960;14.836;2022-09-09T07:27:05;21.80;99.90
31725;DHT22;18306;40.960;14.836;2022-09-09T07:29:33;21.80;99.90
31725;DHT22;18306;40.960;14.836;2022-09-09T07:32:00;21.80;99.90
31725;DHT22;18306;40.960;14.836;2022-09-09T07:34:34;21.90;99.90
31725;DHT22;18306;40.960;14.836;2022-09-09T07:37:02;21.90;99.90
31725;DHT22;18306;40.960;14.836;2022-09-09T07:39:31;21.90;99.90
31725;DHT22;18306;40.960;14.836;2022-09-09T07:41:58;22.00;99.90
31725;DHT22;18306;40.960;14.836;2022-09-09T07:44:27;22.00;99.90
31725;DHT22;18306;40.960;14.836;2022-09-09T07:47:05;22.10;99.90
31725;DHT22;18306;40.960;14.836;2022-09-09T07:49:50;22.20;99.90
31725;DHT22;18306;40.960;14.836;2022-09-09T07:52:24;22.20;99.90
31725;DHT22;18306;40.960;14.836;2022-09-09T07:54:55;22.30;99.90
31725;DHT22;18306;40.960;14.836;2022-09-09T07:57:24;22.50;99.90
31725;DHT22;18306;40.960;14.836;2022-09-09T07:59:53;22.50;99.90
31725;DHT22;18306;40.960;14.836;2022-09-09T08:02:24;22.80;99.90
31725;DHT22;18306;40.960;14.836;2022-09-09T08:04:55;23.10;99.90
31725;DHT22;18306;40.960;14.836;2022-09-09T08:07:23;23.40;99.90
31725;DHT22;18306;40.960;14.836;2022-09-09T08:09:54;23.50;99.90
31725;DHT22;18306;40.960;14.836;2022-09-09T08:12:26;23.70;99.90
31725;DHT22;18306;40.960;14.836;2022-09-09T08:14:54;23.80;99.90
31725;DHT22;18306;40.960;14.836;2022-09-09T08:17:22;23.90;99.90
31725;DHT22;18306;40.960;14.836;2022-09-09T08:19:49;24.00;99.90
31725;DHT22;18306;40.960;14.836;2022-09-09T08:22:22;24.10;99.90
31725;DHT22;18306;40.960;14.836;2022-09-09T08:24:50;24.20;99.90
31725;DHT22;18306;40.960;14.836;2022-09-09T08:27:20;24.30;99.90
31725;DHT22;18306;40.960;14.836;2022-09-09T08:29:48;24.30;99.90
31725;DHT22;18306;40.960;14.836;2022-09-09T08:32:16;24.20;99.90
31725;DHT22;18306;40.960;14.836;2022-09-09T08:34:46;24.10;99.90
31725;DHT22;18306;40.960;14.836;2022-09-09T08:37:19;24.10;99.90
31725;DHT22;18306;40.960;14.836;2022-09-09T08:39:47;24.30;99.90
31725;DHT22;18306;40.960;14.836;2022-09-09T08:50:39;24.70;99.90
31725;DHT22;18306;40.960;14.836;2022-09-09T08:53:23;24.80;99.90
31725;DHT22;18306;40.960;14.836;2022-09-09T08:55:56;24.90;99.90
31725;DHT22;18306;40.960;14.836;2022-09-09T08:58:34;25.00;99.90
31725;DHT22;18306;40.960;14.836;2022-09-09T09:01:35;25.00;99.90
31725;DHT22;18306;40.960;14.836;2022-09-09T09:04:34;25.10;99.90
31725;DHT22;18306;40.960;14.836;2022-09-09T09:07:30;25.00;99.90
31725;DHT22;18306;40.960;14.836;2022-09-09T09:12:43;25.30;99.90
31725;DHT22;18306;40.960;14.836;2022-09-09T09:15:40;25.20;99.90
31725;DHT22;18306;40.960;14.836;2022-09-09T09:18:11;25.30;99.90
31725;DHT22;18306;40.960;14.836;2022-09-09T09:23:39;25.50;99.90
31725;DHT22;18306;40.960;14.836;2022-09-09T09:26:10;25.70;99.90
31725;DHT22;18306;40.960;14.836;2022-09-09T09:28:40;25.70;99.90
31725;DHT22;18306;40.960;14.836;2022-09-09T09:31:14;25.70;99.90
31725;DHT22;18306;40.960;14.836;2022-09-09T09:33:54;25.70;99.90
31725;DHT22;18306;40.960;14.836;2022-09-09T09:37:11;25.80;99.90
31725;DHT22;18306;40.960;14.836;2022-09-09T09:39:35;26.20;99.90
31725;DHT22;18306;40.960;14.836;2022-09-09T09:47:37;26.20;99.90
31725;DHT22;18306;40.960;14.836;2022-09-09T09:50:39;26.30;99.90
31725;DHT22;18306;40.960;14.836;2022-09-09T09:53:36;26.50;99.90
31725;DHT22;18306;40.960;14.836;2022-09-09T09:56:11;26.50;99.90
31725;DHT22;18306;40.960;14.836;2022-09-09T09:58:50;26.60;99.90
31725;DHT22;18306;40.960;14.836;2022-09-09T10:01:27;26.60;99.90
31725;DHT22;18306;40.960;14.836;2022-09-09T10:04:19;26.70;99.90
31725;DHT22;18306;40.960;14.836;2022-09-09T10:06:50;26.60;99.90
31725;DHT22;18306;40.960;14.836;2022-09-09T10:09:28;26.60;99.90
31725;DHT22;18306;40.960;14.836;2022-09-09T10:12:16;26.70;99.90
31725;DHT22;18306;40.960;14.836;2022-09-09T10:27:24;26.80;99.90
31725;DHT22;18306;40.960;14.836;2022-09-09T10:30:06;26.80;99.90
31725;DHT22;18306;40.960;14.836;2022-09-09T10:38:11;27.20;99.90
31725;DHT22;18306;40.960;14.836;2022-09-09T10:40:50;27.20;99.90
31725;DHT22;18306;40.960;14.836;2022-09-09T10:43:49;27.20;99.90
31725;DHT22;18306;40.960;14.836;2022-09-09T10:46:51;27.20;99.90
31725;DHT22;18306;40.960;14.836;2022-09-09T10:49:51;27.30;99.90
31725;DHT22;18306;40.960;14.836;2022-09-09T10:52:55;27.30;99.90
31725;DHT22;18306;40.960;14.836;2022-09-09T10:55:35;27.40;99.90
31725;DHT22;18306;40.960;14.836;2022-09-09T10:58:09;27.30;99.90
31725;DHT22;18306;40.960;14.836;2022-09-09T11:00:42;27.30;99.90
31725;DHT22;18306;40.960;14.836;2022-09-09T11:03:27;27.60;99.90
31725;DHT22;18306;40.960;14.836;2022-09-09T11:08:30;27.60;99.90
31725;DHT22;18306;40.960;14.836;2022-09-09T11:17:15;27.60;99.90
31725;DHT22;18306;40.960;14.836;2022-09-09T11:19:44;27.50;99.90
31725;DHT22;18306;40.960;14.836;2022-09-09T11:22:29;27.70;99.90
31725;DHT22;18306;40.960;14.836;2022-09-09T11:30:42;27.50;99.90
31725;DHT22;18306;40.960;14.836;2022-09-09T11:39:12;27.40;99.90
31725;DHT22;18306;40.960;14.836;2022-09-09T11:41:43;27.50;99.90
31725;DHT22;18306;40.960;14.836;2022-09-09T11:44:28;27.50;99.90
31725;DHT22;18306;40.960;14.836;2022-09-09T11:47:23;27.40;99.90
31725;DHT22;18306;40.960;14.836;2022-09-09T11:50:27;27.10;99.90
31725;DHT22;18306;40.960;14.836;2022-09-09T11:53:16;27.10;99.90
31725;DHT22;18306;40.960;14.836;2022-09-09T11:55:48;27.50;99.90
31725;DHT22;18306;40.960;14.836;2022-09-09T11:58:17;27.60;99.90
31725;DHT22;18306;40.960;14.836;2022-09-09T12:00:48;27.40;99.90
31725;DHT22;18306;40.960;14.836;2022-09-09T12:03:41;27.30;99.90
31725;DHT22;18306;40.960;14.836;2022-09-09T12:08:45;27.10;99.90
31725;DHT22;18306;40.960;14.836;2022-09-09T12:11:24;26.90;99.90
31725;DHT22;18306;40.960;14.836;2022-09-09T12:13:56;27.10;99.90
31725;DHT22;18306;40.960;14.836;2022-09-09T12:16:35;27.50;99.90
31725;DHT22;18306;40.960;14.836;2022-09-09T12:19:15;27.40;99.90
31725;DHT22;18306;40.960;14.836;2022-09-09T12:22:31;27.30;99.90
31725;DHT22;18306;40.960;14.836;2022-09-09T12:25:32;27.50;99.90
31725;DHT22;18306;40.960;14.836;2022-09-09T12:28:18;27.70;99.90
31725;DHT22;18306;40.960;14.836;2022-09-09T12:33:42;27.80;99.90
31725;DHT22;18306;40.960;14.836;2022-09-09T12:36:18;27.90;99.90
31725;DHT22;18306;40.960;14.836;2022-09-09T12:38:46;27.70;99.90
31725;DHT22;18306;40.960;14.836;2022-09-09T12:41:21;27.80;99.90
31725;DHT22;18306;40.960;14.836;2022-09-09T12:43:49;27.70;99.90
31725;DHT22;18306;40.960;14.836;2022-09-09T12:46:30;27.60;99.90
31725;DHT22;18306;40.960;14.836;2022-09-09T12:48:59;27.50;99.90
31725;DHT22;18306;40.960;14.836;2022-09-09T12:51:32;27.40;99.90
31725;DHT22;18306;40.960;14.836;2022-09-09T12:54:00;27.70;99.90
31725;DHT22;18306;40.960;14.836;2022-09-09T12:56:30;28.00;99.90
31725;DHT22;18306;40.960;14.836;2022-09-09T12:58:58;28.20;99.90
31725;DHT22;18306;40.960;14.836;2022-09-09T13:01:30;27.90;99.90
31725;DHT22;18306;40.960;14.836;2022-09-09T13:04:33;27.80;99.90
31725;DHT22;18306;40.960;14.836;2022-09-09T13:07:07;27.60;99.90
31725;DHT22;18306;40.960;14.836;2022-09-09T13:09:36;27.70;99.90
31725;DHT22;18306;40.960;14.836;2022-09-09T13:12:15;27.70;99.90
31725;DHT22;18306;40.960;14.836;2022-09-09T13:14:49;27.70;99.90
31725;DHT22;18306;40.960;14.836;2022-09-09T13:17:27;27.70;99.90
31725;DHT22;18306;40.960;14.836;2022-09-09T13:19:57;27.70;99.90
31725;DHT22;18306;40.960;14.836;2022-09-09T13:22:37;27.70;99.90
31725;DHT22;18306;40.960;14.836;2022-09-09T13:27:40;27.30;99.90
31725;DHT22;18306;40.960;14.836;2022-09-09T13:38:21;27.50;99.90
31725;DHT22;18306;40.960;14.836;2022-09-09T13:41:01;27.60;99.90
31725;DHT22;18306;40.960;14.836;2022-09-09T13:48:59;27.80;99.90
31725;DHT22;18306;40.960;14.836;2022-09-09T13:51:34;27.80;99.90
31725;DHT22;18306;40.960;14.836;2022-09-09T13:54:05;27.70;99.90
31725;DHT22;18306;40.960;14.836;2022-09-09T13:56:34;27.80;99.90
31725;DHT22;18306;40.960;14.836;2022-09-09T13:59:03;27.50;99.90
31725;DHT22;18306;40.960;14.836;2022-09-09T14:01:30;27.50;99.90
31725;DHT22;18306;40.960;14.836;2022-09-09T14:03:58;27.60;99.90
31725;DHT22;18306;40.960;14.836;2022-09-09T14:06:25;27.80;99.90
31725;DHT22;18306;40.960;14.836;2022-09-09T14:08:53;27.80;99.90
31725;DHT22;18306;40.960;14.836;2022-09-09T14:11:21;28.00;99.90
31725;DHT22;18306;40.960;14.836;2022-09-09T14:13:49;27.80;99.90
31725;DHT22;18306;40.960;14.836;2022-09-09T14:16:17;27.80;99.90
31725;DHT22;18306;40.960;14.836;2022-09-09T14:18:46;27.80;99.90
31725;DHT22;18306;40.960;14.836;2022-09-09T14:21:13;27.60;99.90
31725;DHT22;18306;40.960;14.836;2022-09-09T14:23:42;27.50;99.90
31725;DHT22;18306;40.960;14.836;2022-09-09T14:26:10;27.50;99.90
31725;DHT22;18306;40.960;14.836;2022-09-09T14:28:38;27.50;99.90
31725;DHT22;18306;40.960;14.836;2022-09-09T14:31:07;27.50;99.90
31725;DHT22;18306;40.960;14.836;2022-09-09T14:33:46;27.50;99.90
31725;DHT22;18306;40.960;14.836;2022-09-09T14:36:13;27.50;99.90
31725;DHT22;18306;40.960;14.836;2022-09-09T14:38:42;27.50;99.90
31725;DHT22;18306;40.960;14.836;2022-09-09T14:41:16;27.40;99.90
31725;DHT22;18306;40.960;14.836;2022-09-09T14:43:48;27.30;99.90
31725;DHT22;18306;40.960;14.836;2022-09-09T14:46:18;27.20;99.90
31725;DHT22;18306;40.960;14.836;2022-09-09T14:48:47;27.10;99.90
31725;DHT22;18306;40.960;14.836;2022-09-09T14:51:20;27.20;99.90
31725;DHT22;18306;40.960;14.836;2022-09-09T14:53:51;27.10;99.90
31725;DHT22;18306;40.960;14.836;2022-09-09T14:56:22;27.10;99.90
31725;DHT22;18306;40.960;14.836;2022-09-09T14:58:50;27.10;99.90
31725;DHT22;18306;40.960;14.836;2022-09-09T15:01:22;27.10;99.90
31725;DHT22;18306;40.960;14.836;2022-09-09T15:04:03;27.20;99.90
31725;DHT22;18306;40.960;14.836;2022-09-09T15:06:37;27.20;99.90
31725;DHT22;18306;40.960;14.836;2022-09-09T15:09:06;27.20;99.90
31725;DHT22;18306;40.960;14.836;2022-09-09T15:11:35;27.10;99.90
31725;DHT22;18306;40.960;14.836;2022-09-09T15:14:05;27.00;99.90
31725;DHT22;18306;40.960;14.836;2022-09-09T15:16:33;27.00;99.90
31725;DHT22;18306;40.960;14.836;2022-09-09T15:19:02;27.00;99.90
31725;DHT22;18306;40.960;14.836;2022-09-09T15:21:31;27.00;99.90
31725;DHT22;18306;40.960;14.836;2022-09-09T15:24:08;26.90;99.90
31725;DHT22;18306;40.960;14.836;2022-09-09T15:26:35;26.80;99.90
31725;DHT22;18306;40.960;14.836;2022-09-09T15:29:05;26.80;99.90
31725;DHT22;18306;40.960;14.836;2022-09-09T15:31:36;26.70;99.90
31725;DHT22;18306;40.960;14.836;2022-09-09T15:34:05;26.80;99.90
31725;DHT22;18306;40.960;14.836;2022-09-09T15:36:38;26.80;99.90
31725;DHT22;18306;40.960;14.836;2022-09-09T15:39:10;26.70;99.90
31725;DHT22;18306;40.960;14.836;2022-09-09T15:41:44;26.70;99.90
31725;DHT22;18306;40.960;14.836;2022-09-09T15:44:12;26.70;99.90
31725;DHT22;18306;40.960;14.836;2022-09-09T15:46:45;26.60;99.90
31725;DHT22;18306;40.960;14.836;2022-09-09T15:49:15;26.60;99.90
31725;DHT22;18306;40.960;14.836;2022-09-09T15:51:47;26.50;99.90
31725;DHT22;18306;40.960;14.836;2022-09-09T15:54:18;26.50;99.90
31725;DHT22;18306;40.960;14.836;2022-09-09T15:56:51;26.40;99.90
31725;DHT22;18306;40.960;14.836;2022-09-09T15:59:18;26.40;99.90
31725;DHT22;18306;40.960;14.836;2022-09-09T16:01:45;26.40;99.90
31725;DHT22;18306;40.960;14.836;2022-09-09T16:04:13;26.30;99.90
31725;DHT22;18306;40.960;14.836;2022-09-09T16:06:40;26.30;99.90
31725;DHT22;18306;40.960;14.836;2022-09-09T16:09:08;26.20;99.90
31725;DHT22;18306;40.960;14.836;2022-09-09T16:11:38;26.20;99.90
31725;DHT22;18306;40.960;14.836;2022-09-09T16:14:06;26.20;99.90
31725;DHT22;18306;40.960;14.836;2022-09-09T16:16:35;26.20;99.90
31725;DHT22;18306;40.960;14.836;2022-09-09T16:19:05;26.10;99.90
31725;DHT22;18306;40.960;14.836;2022-09-09T16:21:37;26.00;99.90
31725;DHT22;18306;40.960;14.836;2022-09-09T16:24:06;26.00;99.90
31725;DHT22;18306;40.960;14.836;2022-09-09T16:26:35;26.00;99.90
31725;DHT22;18306;40.960;14.836;2022-09-09T16:29:03;25.90;99.90
31725;DHT22;18306;40.960;14.836;2022-09-09T16:31:31;25.80;99.90
31725;DHT22;18306;40.960;14.836;2022-09-09T16:34:02;25.70;99.90
31725;DHT22;18306;40.960;14.836;2022-09-09T16:36:32;25.70;99.90
31725;DHT22;18306;40.960;14.836;2022-09-09T16:39:03;25.60;99.90
31725;DHT22;18306;40.960;14.836;2022-09-09T16:41:32;25.50;99.90
31725;DHT22;18306;40.960;14.836;2022-09-09T16:44:02;25.50;99.90
31725;DHT22;18306;40.960;14.836;2022-09-09T16:46:35;25.50;99.90
31725;DHT22;18306;40.960;14.836;2022-09-09T16:49:05;25.40;99.90
31725;DHT22;18306;40.960;14.836;2022-09-09T16:51:44;25.40;99.90
31725;DHT22;18306;40.960;14.836;2022-09-09T16:54:11;25.40;99.90
31725;DHT22;18306;40.960;14.836;2022-09-09T16:56:43;25.30;99.90
31725;DHT22;18306;40.960;14.836;2022-09-09T16:59:12;25.20;99.90
31725;DHT22;18306;40.960;14.836;2022-09-09T17:01:41;25.10;99.90
31725;DHT22;18306;40.960;14.836;2022-09-09T17:04:12;25.10;99.90
31725;DHT22;18306;40.960;14.836;2022-09-09T17:06:49;25.10;99.90
31725;DHT22;18306;40.960;14.836;2022-09-09T17:09:17;25.10;99.90
31725;DHT22;18306;40.960;14.836;2022-09-09T17:11:45;25.00;99.90
31725;DHT22;18306;40.960;14.836;2022-09-09T17:14:15;25.00;99.90
31725;DHT22;18306;40.960;14.836;2022-09-09T17:16:43;24.90;99.90
31725;DHT22;18306;40.960;14.836;2022-09-09T17:19:14;24.90;99.90
31725;DHT22;18306;40.960;14.836;2022-09-09T17:21:42;24.80;99.90
31725;DHT22;18306;40.960;14.836;2022-09-09T17:24:11;24.80;99.90
31725;DHT22;18306;40.960;14.836;2022-09-09T17:26:38;24.80;99.90
31725;DHT22;18306;40.960;14.836;2022-09-09T17:29:06;24.70;99.90
31725;DHT22;18306;40.960;14.836;2022-09-09T17:31:34;24.70;99.90
31725;DHT22;18306;40.960;14.836;2022-09-09T17:34:01;24.60;99.90
31725;DHT22;18306;40.960;14.836;2022-09-09T17:36:32;24.60;99.90
31725;DHT22;18306;40.960;14.836;2022-09-09T17:39:00;24.60;99.90
31725;DHT22;18306;40.960;14.836;2022-09-09T17:41:33;24.60;99.90
31725;DHT22;18306;40.960;14.836;2022-09-09T17:44:05;24.50;99.90
31725;DHT22;18306;40.960;14.836;2022-09-09T17:46:36;24.50;99.90
31725;DHT22;18306;40.960;14.836;2022-09-09T17:49:07;24.40;99.90
31725;DHT22;18306;40.960;14.836;2022-09-09T17:51:38;24.30;99.90
31725;DHT22;18306;40.960;14.836;2022-09-09T17:54:16;24.20;99.90